createdAt,value
2022-11-07T00:02:09.792Z,27.70
2022-11-07T00:04:38.597Z,29.20
2022-11-07T00:07:07.977Z,28.50
2022-11-07T00:09:36.472Z,25.80
2022-11-07T00:12:05.187Z,24.90
2022-11-07T00:14:33.636Z,26.30
2022-11-07T00:17:02.285Z,25.00
2022-11-07T00:19:31.160Z,26.80
2022-11-07T00:21:59.806Z,26.60
2022-11-07T00:24:28.312Z,29.70
2022-11-07T00:26:56.804Z,28.20
2022-11-07T00:29:25.444Z,28.70
2022-11-07T00:31:53.796Z,27.50
2022-11-07T00:34:22.619Z,29.00
2022-11-07T00:36:51.304Z,26.00
2022-11-07T00:39:20.108Z,25.20
2022-11-07T00:41:49.568Z,27.10
2022-11-07T00:44:17.996Z,23.50
2022-11-07T00:46:46.379Z,23.90
2022-11-07T00:49:14.687Z,23.70
2022-11-07T00:51:42.936Z,23.80
2022-11-07T00:54:11.698Z,22.60
2022-11-07T00:56:40.001Z,23.50
2022-11-07T00:59:08.839Z,23.10
2022-11-07T01:01:37.787Z,22.50
2022-11-07T01:04:25.100Z,23.80
2022-11-07T01:06:53.795Z,24.00
2022-11-07T01:09:22.478Z,25.40
2022-11-07T01:11:51.102Z,25.80
2022-11-07T01:14:22.310Z,25.90
2022-11-07T01:16:52.111Z,26.10
2022-11-07T01:19:20.718Z,25.90
2022-11-07T01:21:49.380Z,28.60
2022-11-07T01:24:19.102Z,26.00
2022-11-07T01:26:49.144Z,24.80
2022-11-07T01:29:19.371Z,23.00
2022-11-07T01:31:47.897Z,22.20
2022-11-07T01:34:17.927Z,22.60
2022-11-07T01:36:46.517Z,22.00
2022-11-07T01:39:15.024Z,22.10
2022-11-07T01:41:43.345Z,22.30
2022-11-07T01:44:11.768Z,20.20
2022-11-07T01:46:45.736Z,21.60
2022-11-07T01:49:31.145Z,22.30
2022-11-07T01:52:23.437Z,23.80
2022-11-07T01:55:10.943Z,26.70
2022-11-07T01:57:50.321Z,29.60
2022-11-07T02:00:22.013Z,28.40
2022-11-07T02:02:58.228Z,26.70
2022-11-07T02:05:35.293Z,28.30
2022-11-07T02:08:06.748Z,27.80
2022-11-07T02:10:37.125Z,26.70
2022-11-07T02:13:07.239Z,26.40
2022-11-07T02:15:37.307Z,24.80
2022-11-07T02:18:06.025Z,22.90
2022-11-07T02:20:35.198Z,22.40
2022-11-07T02:23:10.597Z,20.70
2022-11-07T02:25:39.217Z,22.90
2022-11-07T02:28:10.590Z,20.20
2022-11-07T02:30:39.251Z,21.40
2022-11-07T02:33:22.662Z,19.00
2022-11-07T02:35:53.216Z,20.80
2022-11-07T02:38:35.168Z,20.40
2022-11-07T02:41:12.287Z,21.30
2022-11-07T02:43:46.106Z,22.40
2022-11-07T02:46:14.858Z,24.20
2022-11-07T02:48:52.565Z,23.90
2022-11-07T02:51:20.848Z,23.30
2022-11-07T02:53:49.310Z,24.20
2022-11-07T02:56:18.774Z,24.30
2022-11-07T02:58:47.707Z,19.90
2022-11-07T03:01:16.440Z,23.30
2022-11-07T03:03:48.035Z,23.10
2022-11-07T03:06:20.493Z,24.50
2022-11-07T03:08:48.699Z,23.50
2022-11-07T03:11:19.912Z,22.50
2022-11-07T03:13:49.953Z,22.60
2022-11-07T03:16:19.893Z,22.00
2022-11-07T03:18:48.184Z,22.50
2022-11-07T03:21:16.428Z,24.10
2022-11-07T03:23:44.695Z,26.80
2022-11-07T03:26:13.033Z,26.50
2022-11-07T03:28:41.072Z,26.50
2022-11-07T03:31:09.205Z,27.30
2022-11-07T03:33:37.672Z,26.80
2022-11-07T03:36:06.205Z,29.20
2022-11-07T03:38:34.393Z,30.60
2022-11-07T03:41:02.735Z,30.00
2022-11-07T03:43:30.953Z,28.60
2022-11-07T03:45:59.219Z,24.90
2022-11-07T03:48:27.457Z,24.40
2022-11-07T03:50:56.021Z,23.40
2022-11-07T03:53:26.147Z,27.20
2022-11-07T03:55:56.000Z,23.60
2022-11-07T03:58:25.163Z,26.20
2022-11-07T04:00:53.533Z,24.80
2022-11-07T04:03:22.039Z,25.70
2022-11-07T04:05:50.429Z,26.10
2022-11-07T04:08:18.833Z,25.00
2022-11-07T04:10:47.582Z,26.90
2022-11-07T04:13:34.749Z,28.80
2022-11-07T04:16:29.005Z,28.40
2022-11-07T04:18:58.420Z,29.60
2022-11-07T04:21:26.948Z,29.00
2022-11-07T04:23:55.193Z,30.00
2022-11-07T04:27:02.306Z,29.60
2022-11-07T04:29:30.689Z,34.20
2022-11-07T04:31:59.251Z,34.00
2022-11-07T04:34:27.837Z,35.20
2022-11-07T04:36:56.710Z,29.10
2022-11-07T04:39:25.672Z,31.50
2022-11-07T04:41:54.147Z,28.50
2022-11-07T04:44:23.609Z,31.20
2022-11-07T04:46:52.171Z,33.00
2022-11-07T04:49:20.563Z,33.90
2022-11-07T04:51:49.724Z,32.60
2022-11-07T04:54:18.697Z,30.90
2022-11-07T04:56:47.449Z,34.30
2022-11-07T04:59:15.924Z,32.10
2022-11-07T05:01:45.122Z,34.30
2022-11-07T05:04:13.937Z,32.50
2022-11-07T05:06:42.794Z,33.00
2022-11-07T05:09:18.263Z,29.60
2022-11-07T05:11:48.354Z,32.50
2022-11-07T05:14:17.091Z,30.30
2022-11-07T05:16:45.589Z,32.40
2022-11-07T05:19:18.815Z,31.20
2022-11-07T05:21:47.737Z,33.00
2022-11-07T05:24:16.287Z,34.40
2022-11-07T05:26:44.847Z,35.00
2022-11-07T05:29:13.545Z,36.60
2022-11-07T05:31:42.232Z,37.90
2022-11-07T05:34:14.503Z,37.30
2022-11-07T05:36:43.383Z,39.00
2022-11-07T05:39:12.235Z,38.30
2022-11-07T05:41:40.827Z,41.10
2022-11-07T05:44:11.350Z,39.00
2022-11-07T05:46:39.543Z,37.70
2022-11-07T05:49:11.650Z,33.50
2022-11-07T05:51:44.251Z,36.60
2022-11-07T05:54:14.197Z,36.80
2022-11-07T05:56:44.359Z,34.00
2022-11-07T05:59:13.109Z,35.60
2022-11-07T06:01:42.176Z,35.10
2022-11-07T06:04:11.765Z,32.10
2022-11-07T06:06:40.934Z,33.50
2022-11-07T06:09:10.203Z,32.20
2022-11-07T06:11:38.843Z,35.80
2022-11-07T06:14:07.546Z,38.80
2022-11-07T06:16:36.372Z,39.30
2022-11-07T06:19:05.073Z,40.30
2022-11-07T06:21:35.393Z,40.60
2022-11-07T06:24:03.946Z,41.40
2022-11-07T06:26:32.516Z,43.20
2022-11-07T06:29:00.951Z,43.20
2022-11-07T06:31:28.987Z,42.60
2022-11-07T06:33:57.443Z,38.30
2022-11-07T06:36:26.711Z,35.30
2022-11-07T06:38:55.535Z,36.10
2022-11-07T06:41:24.610Z,33.60
2022-11-07T06:43:54.172Z,35.50
2022-11-07T06:46:23.482Z,35.00
2022-11-07T06:48:52.580Z,35.80
2022-11-07T06:51:20.756Z,36.30
2022-11-07T06:53:50.556Z,35.00
2022-11-07T06:56:18.960Z,35.40
2022-11-07T06:59:00.229Z,37.40
2022-11-07T07:01:29.521Z,38.90
2022-11-07T07:03:59.342Z,39.40
2022-11-07T07:06:28.130Z,40.00
2022-11-07T07:08:56.696Z,42.20
2022-11-07T07:11:25.456Z,42.00
2022-11-07T07:14:01.176Z,40.60
2022-11-07T07:16:31.151Z,41.30
2022-11-07T07:18:59.938Z,39.70
2022-11-07T07:21:28.799Z,39.90
2022-11-07T07:23:58.083Z,39.20
2022-11-07T07:26:26.415Z,37.00
2022-11-07T07:28:54.853Z,33.50
2022-11-07T07:31:24.859Z,35.30
2022-11-07T07:33:53.527Z,37.00
2022-11-07T07:36:22.157Z,37.50
2022-11-07T07:38:51.554Z,33.40
2022-11-07T07:41:21.353Z,38.10
2022-11-07T07:43:50.840Z,37.40
2022-11-07T07:46:24.236Z,37.50
2022-11-07T07:48:53.445Z,39.90
2022-11-07T07:51:22.235Z,42.30
2022-11-07T07:53:51.183Z,42.20
2022-11-07T07:56:20.770Z,43.40
2022-11-07T07:58:50.234Z,42.30
2022-11-07T08:01:19.183Z,39.40
2022-11-07T08:04:01.321Z,42.00
2022-11-07T08:06:36.202Z,40.00
2022-11-07T08:09:05.405Z,37.30
2022-11-07T08:11:35.146Z,39.50
2022-11-07T08:14:05.354Z,35.70
2022-11-07T08:16:34.611Z,36.00
2022-11-07T08:19:04.726Z,37.30
2022-11-07T08:21:33.662Z,40.10
2022-11-07T08:24:04.129Z,42.30
2022-11-07T08:26:33.414Z,40.60
2022-11-07T08:29:02.810Z,42.80
2022-11-07T08:31:32.553Z,40.20
2022-11-07T08:34:01.892Z,41.10
2022-11-07T08:36:31.283Z,45.70
2022-11-07T08:39:00.342Z,50.50
2022-11-07T08:41:29.293Z,50.30
2022-11-07T08:43:59.315Z,48.30
2022-11-07T08:46:27.932Z,41.20
2022-11-07T08:48:57.326Z,42.40
2022-11-07T08:51:27.270Z,40.80
2022-11-07T08:53:57.813Z,37.20
2022-11-07T08:56:26.778Z,38.90
2022-11-07T08:58:56.177Z,36.00
2022-11-07T09:01:25.118Z,38.80
2022-11-07T09:03:57.877Z,41.00
2022-11-07T09:06:27.392Z,42.20
2022-11-07T09:08:56.517Z,41.10
2022-11-07T09:11:26.503Z,40.40
2022-11-07T09:13:56.859Z,39.40
2022-11-07T09:16:26.783Z,37.60
2022-11-07T09:18:56.359Z,37.60
2022-11-07T09:21:26.090Z,36.90
2022-11-07T09:23:55.138Z,36.70
2022-11-07T09:26:25.998Z,35.30
2022-11-07T09:29:00.796Z,35.70
2022-11-07T09:31:31.211Z,36.00
2022-11-07T09:34:01.716Z,34.30
2022-11-07T09:36:30.726Z,35.30
2022-11-07T09:39:01.387Z,34.60
2022-11-07T09:42:22.417Z,34.10
2022-11-07T09:44:56.555Z,35.20
2022-11-07T09:48:04.362Z,37.20
2022-11-07T09:50:41.501Z,39.80
2022-11-07T09:53:27.169Z,38.60
2022-11-07T09:58:52.800Z,38.90
2022-11-07T10:01:23.124Z,40.00
2022-11-07T10:04:23.109Z,32.80
2022-11-07T10:06:49.425Z,32.60
2022-11-07T10:09:40.748Z,30.90
2022-11-07T10:12:22.993Z,31.10
2022-11-07T10:15:00.604Z,32.70
2022-11-07T10:18:01.950Z,34.40
2022-11-07T10:20:46.204Z,34.70
2022-11-07T10:23:44.894Z,37.00
2022-11-07T10:26:18.735Z,39.40
2022-11-07T10:29:10.825Z,36.30
2022-11-07T10:31:43.413Z,35.90
2022-11-07T10:34:29.507Z,36.50
2022-11-07T10:36:58.722Z,33.60
2022-11-07T10:39:31.689Z,35.60
2022-11-07T10:42:10.253Z,37.40
2022-11-07T10:44:42.175Z,35.90
2022-11-07T10:47:28.969Z,37.30
2022-11-07T10:50:01.100Z,37.80
2022-11-07T10:52:30.724Z,36.30
2022-11-07T10:55:14.789Z,41.30
2022-11-07T10:57:46.451Z,37.80
2022-11-07T11:00:37.059Z,41.70
2022-11-07T11:03:22.877Z,44.10
2022-11-07T11:05:51.898Z,43.30
2022-11-07T11:08:23.674Z,45.90
2022-11-07T11:10:52.588Z,42.30
2022-11-07T11:13:26.902Z,39.50
2022-11-07T11:16:00.050Z,38.00
2022-11-07T11:18:33.465Z,38.90
2022-11-07T11:21:06.174Z,42.40
2022-11-07T11:23:42.239Z,35.90
2022-11-07T11:26:29.115Z,35.90
2022-11-07T11:29:09.276Z,37.60
2022-11-07T11:31:45.240Z,40.30
2022-11-07T11:34:38.552Z,37.90
2022-11-07T11:37:15.098Z,38.90
2022-11-07T11:39:52.986Z,37.60
2022-11-07T11:42:34.475Z,41.10
2022-11-07T11:45:25.953Z,40.20
2022-11-07T11:48:07.595Z,40.40
2022-11-07T11:50:46.069Z,38.80
2022-11-07T11:53:19.392Z,38.20
2022-11-07T11:56:01.740Z,40.30
2022-11-07T11:58:36.349Z,39.90
2022-11-07T12:01:19.403Z,40.60
2022-11-07T12:04:09.190Z,39.10
2022-11-07T12:06:41.371Z,40.00
2022-11-07T12:09:42.576Z,38.70
2022-11-07T12:12:29.855Z,37.90
2022-11-07T12:15:10.732Z,35.20
2022-11-07T12:17:48.522Z,32.40
2022-11-07T12:20:28.525Z,36.30
2022-11-07T12:23:16.130Z,40.70
2022-11-07T12:25:51.033Z,37.10
2022-11-07T12:28:44.854Z,40.90
2022-11-07T12:31:36.270Z,37.20
2022-11-07T12:34:26.110Z,37.00
2022-11-07T12:37:22.771Z,38.40
2022-11-07T12:40:12.604Z,44.90
2022-11-07T12:43:17.172Z,42.80
2022-11-07T12:46:08.121Z,41.60
2022-11-07T12:48:37.095Z,44.00
2022-11-07T12:51:21.808Z,44.30
2022-11-07T12:54:16.640Z,46.70
2022-11-07T12:56:47.549Z,44.00
2022-11-07T12:59:30.061Z,41.70
2022-11-07T13:02:23.780Z,44.60
2022-11-07T13:05:17.123Z,43.80
2022-11-07T13:08:00.721Z,44.40
2022-11-07T13:11:12.837Z,43.90
2022-11-07T13:14:03.764Z,42.10
2022-11-07T13:16:35.801Z,42.20
2022-11-07T13:19:12.379Z,43.80
2022-11-07T13:21:43.139Z,40.70
2022-11-07T13:24:22.512Z,38.80
2022-11-07T13:26:51.742Z,39.90
2022-11-07T13:29:27.856Z,38.30
2022-11-07T13:32:09.446Z,39.40
2022-11-07T13:34:46.333Z,39.70
2022-11-07T13:37:28.183Z,40.40
2022-11-07T13:40:04.439Z,42.70
2022-11-07T13:42:35.390Z,40.90
2022-11-07T13:45:27.896Z,43.10
2022-11-07T13:48:00.645Z,43.30
2022-11-07T13:50:42.385Z,43.70
2022-11-07T13:53:30.713Z,44.10
2022-11-07T13:56:19.005Z,43.80
2022-11-07T13:58:50.602Z,44.00
2022-11-07T14:01:19.562Z,46.00
2022-11-07T14:03:51.505Z,47.80
2022-11-07T14:06:20.969Z,44.10
2022-11-07T14:08:49.716Z,42.80
2022-11-07T14:11:22.598Z,40.50
2022-11-07T14:13:54.183Z,42.50
2022-11-07T14:16:28.515Z,42.80
2022-11-07T14:19:01.627Z,41.30
2022-11-07T14:21:34.047Z,42.60
2022-11-07T14:24:04.305Z,44.20
2022-11-07T14:26:36.163Z,45.10
2022-11-07T14:29:07.986Z,45.50
2022-11-07T14:31:39.394Z,45.40
2022-11-07T14:34:15.258Z,43.30
2022-11-07T14:37:00.356Z,45.30
2022-11-07T14:39:33.081Z,44.20
2022-11-07T14:42:04.599Z,42.50
2022-11-07T14:44:54.267Z,41.40
2022-11-07T14:47:28.902Z,38.90
2022-11-07T14:49:58.051Z,37.60
2022-11-07T14:52:33.387Z,38.30
2022-11-07T14:55:08.519Z,38.20
2022-11-07T14:57:39.084Z,37.90
2022-11-07T15:00:13.517Z,37.20
2022-11-07T15:02:42.665Z,39.20
2022-11-07T15:05:38.062Z,40.00
2022-11-07T15:08:06.340Z,38.90
2022-11-07T15:10:39.895Z,40.60
2022-11-07T15:13:27.646Z,40.90
2022-11-07T15:16:03.730Z,39.70
2022-11-07T15:18:42.083Z,41.00
2022-11-07T15:21:33.605Z,43.60
2022-11-07T15:24:40.429Z,43.20
2022-11-07T15:29:58.864Z,40.50
2022-11-07T15:32:42.280Z,38.90
2022-11-07T15:38:17.776Z,38.20
2022-11-07T15:40:47.426Z,37.80
2022-11-07T15:43:15.915Z,36.30
2022-11-07T15:45:45.068Z,37.90
2022-11-07T15:48:19.983Z,36.00
2022-11-07T15:50:49.980Z,36.60
2022-11-07T15:53:24.731Z,38.80
2022-11-07T15:55:55.657Z,39.60
2022-11-07T15:58:26.017Z,39.10
2022-11-07T16:00:55.491Z,37.30
2022-11-07T16:03:25.825Z,39.40
2022-11-07T16:05:58.058Z,41.20
2022-11-07T16:08:26.528Z,42.00
2022-11-07T16:11:07.757Z,42.10
2022-11-07T16:13:36.179Z,53.70
2022-11-07T16:16:06.593Z,51.40
2022-11-07T16:18:42.510Z,48.20
2022-11-07T16:21:11.339Z,43.80
2022-11-07T16:23:40.767Z,40.60
2022-11-07T16:26:13.673Z,39.70
2022-11-07T16:28:42.788Z,39.60
2022-11-07T16:31:14.653Z,38.40
2022-11-07T16:33:43.238Z,39.40
2022-11-07T16:36:26.630Z,41.00
2022-11-07T16:38:55.688Z,48.50
2022-11-07T16:41:24.224Z,56.60
2022-11-07T16:43:52.603Z,50.20
2022-11-07T16:46:24.741Z,50.80
2022-11-07T16:49:12.067Z,50.10
2022-11-07T16:51:45.098Z,48.00
2022-11-07T16:54:14.166Z,48.90
2022-11-07T16:56:43.140Z,49.60
2022-11-07T16:59:19.839Z,51.10
2022-11-07T17:01:49.507Z,47.70
2022-11-07T17:04:17.826Z,45.10
2022-11-07T17:06:47.899Z,42.00
2022-11-07T17:09:20.492Z,40.00
2022-11-07T17:11:50.071Z,42.50
2022-11-07T17:14:18.644Z,43.50
2022-11-07T17:16:48.559Z,48.90
2022-11-07T17:19:16.645Z,56.80
2022-11-07T17:21:48.582Z,52.00
2022-11-07T17:24:17.039Z,48.40
2022-11-07T17:26:45.682Z,50.50
2022-11-07T17:29:14.954Z,46.30
2022-11-07T17:31:44.025Z,41.70
2022-11-07T17:34:13.341Z,37.50
2022-11-07T17:36:49.773Z,43.50
2022-11-07T17:39:21.266Z,41.30
2022-11-07T17:41:51.056Z,43.60
2022-11-07T17:44:20.510Z,41.60
2022-11-07T17:46:50.861Z,43.30
2022-11-07T17:49:22.214Z,44.50
2022-11-07T17:51:54.279Z,44.60
2022-11-07T17:54:29.060Z,46.40
2022-11-07T17:56:58.932Z,56.90
2022-11-07T17:59:27.429Z,75.20
2022-11-07T18:01:55.716Z,73.60
2022-11-07T18:04:24.128Z,62.20
2022-11-07T18:06:52.110Z,65.00
2022-11-07T18:09:20.248Z,66.00
2022-11-07T18:11:48.641Z,64.70
2022-11-07T18:14:16.888Z,46.30
2022-11-07T18:16:44.925Z,39.10
2022-11-07T18:19:13.385Z,43.80
2022-11-07T18:21:41.692Z,40.80
2022-11-07T18:24:10.200Z,38.50
2022-11-07T18:26:40.029Z,38.90
2022-11-07T18:29:11.895Z,41.50
2022-11-07T18:31:41.494Z,46.10
2022-11-07T18:34:13.083Z,40.30
2022-11-07T18:36:43.094Z,40.60
2022-11-07T18:39:15.486Z,39.10
2022-11-07T18:41:44.704Z,43.50
2022-11-07T18:44:13.489Z,40.60
2022-11-07T18:46:42.031Z,44.30
2022-11-07T18:49:12.242Z,42.00
2022-11-07T18:51:41.064Z,43.40
2022-11-07T18:54:10.186Z,61.30
2022-11-07T18:56:39.951Z,56.60
2022-11-07T18:59:08.185Z,54.40
2022-11-07T19:01:36.952Z,54.30
2022-11-07T19:04:07.028Z,53.50
2022-11-07T19:06:35.295Z,52.60
2022-11-07T19:09:04.120Z,53.40
2022-11-07T19:11:34.289Z,53.80
2022-11-07T19:14:03.477Z,50.80
2022-11-07T19:16:32.299Z,48.10
2022-11-07T19:19:00.557Z,50.80
2022-11-07T19:21:29.021Z,51.80
2022-11-07T19:23:57.302Z,50.30
2022-11-07T19:26:25.537Z,48.70
2022-11-07T19:28:58.262Z,51.10
2022-11-07T19:31:29.518Z,54.50
2022-11-07T19:34:00.706Z,57.80
2022-11-07T19:36:30.509Z,59.60
2022-11-07T19:38:58.544Z,77.80
2022-11-07T19:41:26.837Z,75.90
2022-11-07T19:43:55.991Z,74.70
2022-11-07T19:46:24.733Z,56.90
2022-11-07T19:48:56.036Z,62.70
2022-11-07T19:51:24.199Z,74.90
2022-11-07T19:53:54.668Z,66.40
2022-11-07T19:56:24.822Z,60.40
2022-11-07T19:58:54.607Z,56.10
2022-11-07T20:01:26.457Z,47.60
2022-11-07T20:03:55.900Z,45.60
2022-11-07T20:06:27.133Z,46.80
2022-11-07T20:08:55.356Z,49.90
2022-11-07T20:11:26.033Z,61.10
2022-11-07T20:14:02.717Z,58.70
2022-11-07T20:16:34.027Z,65.80
2022-11-07T20:19:03.243Z,59.00
2022-11-07T20:21:34.610Z,55.90
2022-11-07T20:24:05.681Z,57.00
2022-11-07T20:26:33.770Z,59.90
2022-11-07T20:29:02.292Z,53.20
2022-11-07T20:31:36.928Z,45.30
2022-11-07T20:34:07.362Z,46.50
2022-11-07T20:36:35.428Z,44.30
2022-11-07T20:39:04.840Z,43.50
2022-11-07T20:41:33.793Z,40.30
2022-11-07T20:44:04.919Z,40.80
2022-11-07T20:46:36.012Z,42.00
2022-11-07T20:49:06.641Z,45.20
2022-11-07T20:51:34.841Z,42.40
2022-11-07T20:54:03.084Z,43.40
2022-11-07T20:56:31.928Z,45.60
2022-11-07T20:59:00.118Z,44.20
2022-11-07T21:01:36.436Z,45.50
2022-11-07T21:04:11.475Z,43.90
2022-11-07T21:06:39.508Z,41.30
2022-11-07T21:09:08.117Z,38.90
2022-11-07T21:11:37.309Z,40.70
2022-11-07T21:14:05.989Z,40.40
2022-11-07T21:16:34.685Z,41.40
2022-11-07T21:19:05.270Z,43.00
2022-11-07T21:21:33.961Z,41.40
2022-11-07T21:24:03.170Z,44.20
2022-11-07T21:26:35.193Z,46.10
2022-11-07T21:29:06.646Z,45.80
2022-11-07T21:31:38.039Z,46.10
2022-11-07T21:34:09.479Z,48.00
2022-11-07T21:36:37.941Z,46.90
2022-11-07T21:39:07.707Z,44.20
2022-11-07T21:41:36.873Z,46.30
2022-11-07T21:44:05.260Z,48.80
2022-11-07T21:46:36.691Z,45.20
2022-11-07T21:49:06.600Z,49.40
2022-11-07T21:51:36.124Z,47.30
2022-11-07T21:54:06.561Z,48.10
2022-11-07T21:56:37.363Z,52.20
2022-11-07T21:59:09.441Z,51.80
2022-11-07T22:01:39.423Z,52.20
2022-11-07T22:04:12.221Z,51.70
2022-11-07T22:06:44.225Z,51.50
2022-11-07T22:09:18.213Z,50.70
2022-11-07T22:11:48.029Z,44.30
2022-11-07T22:14:22.396Z,48.30
2022-11-07T22:16:51.525Z,53.40
2022-11-07T22:19:19.978Z,55.90
2022-11-07T22:21:49.534Z,58.30
2022-11-07T22:24:17.701Z,58.10
2022-11-07T22:26:46.922Z,60.50
2022-11-07T22:29:15.706Z,59.50
2022-11-07T22:31:43.996Z,57.50
2022-11-07T22:34:12.092Z,56.80
2022-11-07T22:36:40.261Z,55.40
2022-11-07T22:39:08.512Z,56.70
2022-11-07T22:41:36.672Z,54.30
2022-11-07T22:44:05.005Z,51.30
2022-11-07T22:46:33.378Z,52.20
2022-11-07T22:49:01.906Z,52.80
2022-11-07T22:51:35.001Z,48.90
2022-11-07T22:54:08.645Z,49.00
2022-11-07T22:56:37.331Z,44.60
2022-11-07T22:59:07.197Z,50.80
2022-11-07T23:01:38.290Z,49.50
2022-11-07T23:04:07.901Z,51.90
2022-11-07T23:06:36.448Z,49.80
2022-11-07T23:09:05.045Z,48.30
2022-11-07T23:11:51.307Z,49.60
2022-11-07T23:14:22.392Z,49.20
2022-11-07T23:16:53.200Z,50.80
2022-11-07T23:19:24.244Z,51.70
2022-11-07T23:21:55.100Z,52.80
2022-11-07T23:24:23.965Z,52.60
2022-11-07T23:26:53.705Z,54.30
2022-11-07T23:29:24.407Z,55.90
2022-11-07T23:31:53.621Z,57.40
2022-11-07T23:34:23.226Z,54.80
2022-11-07T23:36:52.347Z,52.00
2022-11-07T23:39:22.872Z,53.10
2022-11-07T23:41:51.225Z,50.70
2022-11-07T23:44:19.598Z,48.70
2022-11-07T23:47:06.923Z,51.10
2022-11-07T23:49:53.737Z,48.70
2022-11-07T23:52:22.312Z,47.00
2022-11-07T23:55:09.330Z,48.10
2022-11-07T23:57:57.673Z,48.20
